This is the latest recevied weather packets stored in our database for station/object KC1TLF-15. If no packets are shown the sender has not sent any weather packets the latest 10 day(s).
| Time | Temp. | Humidity | Pressure | Rain* | Wind** | Luminosity | Snow |
|---|---|---|---|---|---|---|---|
| 1777646470 | 11.67° C | 52% | 1018.6 hPa | 0 mm | 1.34 m/s, 342° | 812 W/m² | - |
| 1777645870 | 11.11° C | 52% | 1018.8 hPa | 0 mm | 1.79 m/s, 342° | 716 W/m² | - |
| 1777645271 | 10.56° C | 53% | 1018.7 hPa | 0 mm | 0.89 m/s, 326° | 268 W/m² | - |
| 1777644671 | 11.11° C | 52% | 1018.2 hPa | 0 mm | 1.79 m/s, 291° | 234 W/m² | - |
| 1777644071 | 11.11° C | 51% | 1018.2 hPa | 0 mm | 1.79 m/s, 299° | 697 W/m² | - |
| 1777643471 | 11.11° C | 55% | 1018 hPa | 0 mm | 1.79 m/s, 310° | 152 W/m² | - |
| 1777642870 | 11.11° C | 56% | 1018.1 hPa | 0 mm | 1.34 m/s, 315° | 158 W/m² | - |
| 1777642270 | 11.11° C | 58% | 1018 hPa | 0 mm | 0.45 m/s, 300° | 574 W/m² | - |
| 1777641671 | 11.11° C | 57% | 1018.2 hPa | 0 mm | 2.24 m/s, 240° | 358 W/m² | - |
| 1777641071 | 10.56° C | 58% | 1018.2 hPa | 0 mm | 1.34 m/s, 344° | 498 W/m² | - |
| 1777640471 | 10.56° C | 61% | 1018.2 hPa | 0 mm | 0.89 m/s, 320° | 454 W/m² | - |
| 1777639870 | 10° C | 59% | 1018.2 hPa | 0 mm | 1.34 m/s, 326° | 425 W/m² | - |
| 1777639270 | 10° C | 63% | 1018.3 hPa | 0 mm | 0 m/s | 394 W/m² | - |
| 1777638670 | 10° C | 64% | 1018.4 hPa | 0 mm | 1.34 m/s, 312° | 363 W/m² | - |
| 1777638071 | 9.44° C | 66% | 1018.2 hPa | 0 mm | 1.34 m/s, 322° | 334 W/m² | - |
| 1777637469 | 8.89° C | 67% | 1018.2 hPa | 0 mm | 2.68 m/s, 290° | 303 W/m² | - |
| 1777636871 | 8.89° C | 72% | 1018.2 hPa | 0 mm | 0.89 m/s, 312° | 272 W/m² | - |
| 1777636270 | 8.89° C | 73% | 1018.2 hPa | 0 mm | 1.79 m/s, 266° | 241 W/m² | - |
| 1777635670 | 8.33° C | 75% | 1017.9 hPa | 0 mm | 0.89 m/s, 180° | - | - |
| 1777635069 | 7.78° C | 77% | 1018 hPa | 0 mm | 1.34 m/s, 296° | - | - |
| 1777634469 | 7.78° C | 78% | 1017.8 hPa | 0 mm | 1.79 m/s, 325° | - | - |
| 1777633870 | 7.78° C | 80% | 1017.9 hPa | 0 mm | 1.34 m/s, 310° | - | - |
| 1777633276 | 7.78° C | 79% | 1017.8 hPa | 0 mm | 1.79 m/s, 304° | 100 W/m² | - |
| 1777632669 | 7.22° C | 81% | 1017.4 hPa | 0 mm | 0.89 m/s, 333° | - | - |
| 1777632070 | 6.11° C | 85% | 1017.5 hPa | 0 mm | 0.45 m/s, 319° | - | - |
* Rain latest hour (hover to see other rain measurements)
** Current wind speed in m/s (hover to see current wind gust speed)